createdAt,value
2019-03-31T00:00:04.759Z,1010
2019-03-31T00:01:08.247Z,1009.99
2019-03-31T00:02:04.715Z,1009.96
2019-03-31T00:03:04.695Z,1009.96
2019-03-31T00:04:04.670Z,1009.99
2019-03-31T00:05:04.647Z,1010.03
2019-03-31T00:06:04.627Z,1010.04
2019-03-31T00:07:04.604Z,1010.04
2019-03-31T00:08:04.582Z,1009.99
2019-03-31T00:09:04.558Z,1010.04
2019-03-31T00:10:04.539Z,1010.04
2019-03-31T00:11:04.513Z,1010.02
2019-03-31T00:12:04.491Z,1010.04
2019-03-31T00:13:04.470Z,1010.02
2019-03-31T00:14:04.452Z,1010.05
2019-03-31T00:15:04.425Z,1010
2019-03-31T00:16:04.402Z,1010.02
2019-03-31T00:17:04.378Z,1010.02
2019-03-31T00:18:04.357Z,1009.98
2019-03-31T00:19:04.337Z,1010.01
2019-03-31T00:20:04.318Z,1009.99
2019-03-31T00:21:04.294Z,1009.98
2019-03-31T00:22:04.267Z,1009.96
2019-03-31T00:23:04.244Z,1009.95
2019-03-31T00:24:04.221Z,1009.98
2019-03-31T00:25:04.210Z,1009.98
2019-03-31T00:26:04.175Z,1009.98
2019-03-31T00:27:04.154Z,1009.95
2019-03-31T00:28:04.131Z,1009.94
2019-03-31T00:29:04.107Z,1009.94
2019-03-31T00:30:04.086Z,1009.92
2019-03-31T00:31:04.064Z,1009.87
2019-03-31T00:32:04.078Z,1009.92
2019-03-31T00:33:04.020Z,1009.91
2019-03-31T00:34:03.999Z,1009.91
2019-03-31T00:35:03.987Z,1009.9
2019-03-31T00:36:03.950Z,1009.91
2019-03-31T00:37:03.934Z,1009.93
2019-03-31T00:38:03.906Z,1009.92
2019-03-31T00:39:03.883Z,1009.92
2019-03-31T00:40:03.857Z,1009.96
2019-03-31T00:41:03.836Z,1009.93
2019-03-31T00:42:03.813Z,1009.97
2019-03-31T00:43:03.790Z,1009.93
2019-03-31T00:44:03.767Z,1009.97
2019-03-31T00:45:03.743Z,1010.03
2019-03-31T00:46:03.721Z,1010.01
2019-03-31T00:47:03.700Z,1010.03
2019-03-31T00:48:03.679Z,1010.04
2019-03-31T00:49:03.653Z,1010.07
2019-03-31T00:50:03.633Z,1010.07
2019-03-31T00:51:03.609Z,1010.05
2019-03-31T00:52:03.584Z,1010.08
2019-03-31T00:53:03.562Z,1010.08
2019-03-31T00:54:03.542Z,1010.05
2019-03-31T00:55:03.515Z,1010.06
2019-03-31T00:56:03.494Z,1010.04
2019-03-31T00:57:03.471Z,1010.03
2019-03-31T00:58:03.446Z,1010.07
2019-03-31T00:59:03.422Z,1010.04
2019-03-31T01:00:03.400Z,1010.05
2019-03-31T01:01:03.381Z,1010.03
2019-03-31T01:02:03.358Z,1010.06
2019-03-31T01:03:03.331Z,1010.08
2019-03-31T01:04:03.311Z,1010.05
2019-03-31T01:05:03.285Z,1010.09
2019-03-31T01:06:03.262Z,1010.09
2019-03-31T01:07:03.240Z,1010.12
2019-03-31T01:08:03.218Z,1010.12
2019-03-31T01:09:03.192Z,1010.1
2019-03-31T01:10:03.168Z,1010.08
2019-03-31T01:11:03.148Z,1010.12
2019-03-31T01:12:03.128Z,1010.11
2019-03-31T01:13:03.102Z,1010.12
2019-03-31T01:14:03.076Z,1010.11
2019-03-31T01:15:03.052Z,1010.11
2019-03-31T01:16:03.035Z,1010.14
2019-03-31T01:17:03.006Z,1010.14
2019-03-31T01:18:02.983Z,1010.16
2019-03-31T01:19:02.961Z,1010.15
2019-03-31T01:20:02.936Z,1010.19
2019-03-31T01:21:02.912Z,1010.21
2019-03-31T01:22:02.889Z,1010.2
2019-03-31T01:23:02.866Z,1010.23
2019-03-31T01:24:02.843Z,1010.22
2019-03-31T01:25:02.820Z,1010.25
2019-03-31T01:26:02.796Z,1010.26
2019-03-31T01:27:02.774Z,1010.32
2019-03-31T01:28:02.750Z,1010.27
2019-03-31T01:29:02.728Z,1010.31
2019-03-31T01:30:02.705Z,1010.28
2019-03-31T01:31:02.679Z,1010.27
2019-03-31T01:32:02.656Z,1010.26
2019-03-31T01:33:02.636Z,1010.28
2019-03-31T01:34:02.611Z,1010.27
2019-03-31T01:35:02.587Z,1010.24
2019-03-31T01:36:02.568Z,1010.21
2019-03-31T01:37:02.539Z,1010.24
2019-03-31T01:38:02.515Z,1010.28
2019-03-31T01:39:02.493Z,1010.26
2019-03-31T01:40:02.475Z,1010.25
2019-03-31T01:41:02.450Z,1010.3
2019-03-31T01:42:02.421Z,1010.27
2019-03-31T01:43:02.399Z,1010.27
2019-03-31T01:44:02.375Z,1010.27
2019-03-31T01:45:02.352Z,1010.27
2019-03-31T01:46:02.571Z,1010.28
2019-03-31T01:47:02.311Z,1010.29
2019-03-31T01:48:02.279Z,1010.32
2019-03-31T01:49:02.256Z,1010.3
2019-03-31T01:50:02.234Z,1010.35
2019-03-31T01:51:02.208Z,1010.3
2019-03-31T01:52:02.186Z,1010.3
2019-03-31T01:53:02.163Z,1010.29
2019-03-31T01:54:02.138Z,1010.3
2019-03-31T01:55:02.114Z,1010.28
2019-03-31T01:56:02.092Z,1010.24
2019-03-31T01:57:02.069Z,1010.31
2019-03-31T01:58:02.044Z,1010.31
2019-03-31T01:59:02.020Z,1010.32
2019-03-31T02:00:02.001Z,1010.27
2019-03-31T02:01:01.975Z,1010.29
2019-03-31T02:02:04.252Z,1010.31
2019-03-31T02:03:01.925Z,1010.28
2019-03-31T02:04:01.900Z,1010.29
2019-03-31T02:05:01.883Z,1010.28
2019-03-31T02:06:01.855Z,1010.29
2019-03-31T02:07:01.835Z,1010.3
2019-03-31T02:08:01.806Z,1010.32
2019-03-31T02:09:01.783Z,1010.31
2019-03-31T02:10:01.768Z,1010.38
2019-03-31T02:11:01.831Z,1010.36
2019-03-31T02:12:01.709Z,1010.37
2019-03-31T02:13:01.688Z,1010.36
2019-03-31T02:14:01.663Z,1010.36
2019-03-31T02:15:01.640Z,1010.37
2019-03-31T02:16:01.615Z,1010.38
2019-03-31T02:17:01.593Z,1010.38
2019-03-31T02:18:01.576Z,1010.31
2019-03-31T02:19:01.544Z,1010.32
2019-03-31T02:20:01.526Z,1010.34
2019-03-31T02:21:01.496Z,1010.34
2019-03-31T02:22:01.474Z,1010.38
2019-03-31T02:23:01.448Z,1010.32
2019-03-31T02:24:01.424Z,1010.33
2019-03-31T02:25:01.401Z,1010.37
2019-03-31T02:26:01.376Z,1010.36
2019-03-31T02:27:01.352Z,1010.35
2019-03-31T02:28:01.329Z,1010.36
2019-03-31T02:29:01.304Z,1010.38
2019-03-31T02:30:01.375Z,1010.41
2019-03-31T02:31:01.260Z,1010.34
2019-03-31T02:32:01.235Z,1010.33
2019-03-31T02:33:01.210Z,1010.31
2019-03-31T02:34:01.188Z,1010.37
2019-03-31T02:35:01.162Z,1010.34
2019-03-31T02:36:01.141Z,1010.37
2019-03-31T02:37:01.115Z,1010.38
2019-03-31T02:38:01.091Z,1010.38
2019-03-31T02:39:01.066Z,1010.34
2019-03-31T02:40:01.044Z,1010.33
2019-03-31T02:41:01.019Z,1010.35
2019-03-31T02:42:00.996Z,1010.33
2019-03-31T02:43:00.972Z,1010.31
2019-03-31T02:44:00.958Z,1010.28
2019-03-31T02:45:00.925Z,1010.33
2019-03-31T02:46:00.900Z,1010.33
2019-03-31T02:47:00.877Z,1010.32
2019-03-31T02:48:00.858Z,1010.38
2019-03-31T02:49:00.828Z,1010.41
2019-03-31T02:50:00.858Z,1010.42
2019-03-31T02:51:00.784Z,1010.38
2019-03-31T02:52:00.763Z,1010.4
2019-03-31T02:53:01.948Z,1010.39
2019-03-31T02:54:00.710Z,1010.37
2019-03-31T02:55:00.720Z,1010.37
2019-03-31T02:56:00.661Z,1010.38
2019-03-31T02:57:00.638Z,1010.4
2019-03-31T02:58:00.612Z,1010.39
2019-03-31T02:59:00.589Z,1010.37
2019-03-31T03:00:00.725Z,1010.38
2019-03-31T03:01:00.543Z,1010.38
2019-03-31T03:02:00.518Z,1010.36
2019-03-31T03:03:00.494Z,1010.38
2019-03-31T03:04:00.472Z,1010.36
2019-03-31T03:05:17.265Z,1010.33
2019-03-31T03:06:00.425Z,1010.32
2019-03-31T03:07:00.399Z,1010.38
2019-03-31T03:08:00.377Z,1010.37
2019-03-31T03:09:00.352Z,1010.41
2019-03-31T03:10:00.561Z,1010.44
2019-03-31T03:11:00.304Z,1010.45
2019-03-31T03:12:00.280Z,1010.45
2019-03-31T03:13:00.256Z,1010.47
2019-03-31T03:14:00.231Z,1010.44
2019-03-31T03:15:00.547Z,1010.46
2019-03-31T03:16:00.189Z,1010.49
2019-03-31T03:17:00.161Z,1010.49
2019-03-31T03:18:00.141Z,1010.53
2019-03-31T03:19:00.115Z,1010.52
2019-03-31T03:20:00.164Z,1010.55
2019-03-31T03:21:00.066Z,1010.56
2019-03-31T03:22:00.041Z,1010.54
2019-03-31T03:23:00.031Z,1010.56
2019-03-31T03:23:59.998Z,1010.52
2019-03-31T03:24:59.969Z,1010.52
2019-03-31T03:25:59.947Z,1010.47
2019-03-31T03:26:59.925Z,1010.47
2019-03-31T03:27:59.899Z,1010.39
2019-03-31T03:28:59.880Z,1010.42
2019-03-31T03:29:59.851Z,1010.44
2019-03-31T03:31:00.223Z,1010.43
2019-03-31T03:31:59.807Z,1010.51
2019-03-31T03:33:14.270Z,1010.5
2019-03-31T03:33:59.768Z,1010.56
2019-03-31T03:34:59.733Z,1010.6
2019-03-31T03:35:59.717Z,1010.61
2019-03-31T03:36:59.686Z,1010.62
2019-03-31T03:37:59.663Z,1010.63
2019-03-31T03:38:59.658Z,1010.57
2019-03-31T03:39:59.611Z,1010.6
2019-03-31T03:40:59.596Z,1010.59
2019-03-31T03:41:59.566Z,1010.57
2019-03-31T03:42:59.542Z,1010.57
2019-03-31T03:44:02.284Z,1010.56
2019-03-31T03:44:59.493Z,1010.6
2019-03-31T03:45:59.471Z,1010.62
2019-03-31T03:46:59.446Z,1010.62
2019-03-31T03:47:59.435Z,1010.64
2019-03-31T03:49:00.614Z,1010.66
2019-03-31T03:49:59.373Z,1010.65
2019-03-31T03:50:59.348Z,1010.65
2019-03-31T03:51:59.325Z,1010.63
2019-03-31T03:52:59.307Z,1010.67
2019-03-31T03:53:59.276Z,1010.64
2019-03-31T03:54:59.252Z,1010.7
2019-03-31T03:55:59.227Z,1010.72
2019-03-31T03:56:59.203Z,1010.73
2019-03-31T03:57:59.189Z,1010.76
2019-03-31T03:58:59.155Z,1010.69
2019-03-31T03:59:59.132Z,1010.78
2019-03-31T04:00:59.107Z,1010.75
2019-03-31T04:01:59.086Z,1010.73
2019-03-31T04:02:59.061Z,1010.78
2019-03-31T04:03:59.036Z,1010.77
2019-03-31T04:04:59.022Z,1010.74
2019-03-31T04:05:58.988Z,1010.77
2019-03-31T04:06:58.962Z,1010.77
2019-03-31T04:07:58.939Z,1010.74
2019-03-31T04:08:58.915Z,1010.76
2019-03-31T04:09:58.891Z,1010.79
2019-03-31T04:10:58.867Z,1010.77
2019-03-31T04:11:58.844Z,1010.76
2019-03-31T04:12:58.819Z,1010.79
2019-03-31T04:13:58.793Z,1010.76
2019-03-31T04:14:58.772Z,1010.8
2019-03-31T04:15:58.749Z,1010.83
2019-03-31T04:16:58.721Z,1010.84
2019-03-31T04:17:58.698Z,1010.87
2019-03-31T04:18:58.676Z,1010.85
2019-03-31T04:19:58.650Z,1010.84
2019-03-31T04:20:58.626Z,1010.91
2019-03-31T04:21:58.602Z,1010.86
2019-03-31T04:22:58.576Z,1010.89
2019-03-31T04:23:58.551Z,1010.91
2019-03-31T04:24:58.528Z,1010.91
2019-03-31T04:25:58.503Z,1010.9
2019-03-31T04:26:58.480Z,1010.89
2019-03-31T04:27:58.456Z,1010.9
2019-03-31T04:28:58.432Z,1010.88
2019-03-31T04:29:58.408Z,1010.91
2019-03-31T04:30:58.384Z,1010.91
2019-03-31T04:31:58.367Z,1010.94
2019-03-31T04:32:58.337Z,1010.95
2019-03-31T04:33:58.309Z,1010.93
2019-03-31T04:34:58.287Z,1010.93
2019-03-31T04:35:58.266Z,1010.96
2019-03-31T04:36:58.238Z,1010.95
2019-03-31T04:37:58.214Z,1010.98
2019-03-31T04:39:00.262Z,1010.97
2019-03-31T04:39:58.167Z,1010.93
2019-03-31T04:40:58.143Z,1010.95
2019-03-31T04:41:58.121Z,1011
2019-03-31T04:42:58.097Z,1011.04
2019-03-31T04:43:58.071Z,1011.02
2019-03-31T04:44:58.048Z,1011.07
2019-03-31T04:45:58.022Z,1011.08
2019-03-31T04:46:57.999Z,1011.08
2019-03-31T04:47:57.974Z,1011.09
2019-03-31T04:48:57.950Z,1011.12
2019-03-31T04:49:57.928Z,1011.16
2019-03-31T04:50:57.901Z,1011.15
2019-03-31T04:51:57.940Z,1011.14
2019-03-31T04:52:57.854Z,1011.16
2019-03-31T04:53:57.828Z,1011.18
2019-03-31T04:54:57.805Z,1011.14
2019-03-31T04:55:57.784Z,1011.13
2019-03-31T04:56:57.757Z,1011.13
2019-03-31T04:57:57.732Z,1011.09
2019-03-31T04:58:57.710Z,1011.15
2019-03-31T04:59:57.682Z,1011.15
2019-03-31T05:00:57.659Z,1011.15
2019-03-31T05:01:57.636Z,1011.18
2019-03-31T05:02:57.610Z,1011.19
2019-03-31T05:04:04.242Z,1011.2
2019-03-31T05:04:57.567Z,1011.2
2019-03-31T05:05:57.544Z,1011.1
2019-03-31T05:06:57.513Z,1011.12
2019-03-31T05:07:57.489Z,1011.13
2019-03-31T05:08:57.468Z,1011.14
2019-03-31T05:09:57.515Z,1011.16
2019-03-31T05:10:57.416Z,1011.19
2019-03-31T05:11:57.391Z,1011.2
2019-03-31T05:12:57.368Z,1011.25
2019-03-31T05:13:57.342Z,1011.27
2019-03-31T05:14:57.317Z,1011.27
2019-03-31T05:15:57.296Z,1011.35
2019-03-31T05:16:57.270Z,1011.38
2019-03-31T05:17:57.249Z,1011.37
2019-03-31T05:18:57.221Z,1011.37
2019-03-31T05:19:57.196Z,1011.41
2019-03-31T05:20:57.170Z,1011.44
2019-03-31T05:21:57.146Z,1011.42
2019-03-31T05:22:57.123Z,1011.46
2019-03-31T05:23:57.130Z,1011.44
2019-03-31T05:24:57.073Z,1011.45
2019-03-31T05:25:57.051Z,1011.45
2019-03-31T05:26:57.025Z,1011.48
2019-03-31T05:27:57.001Z,1011.48
2019-03-31T05:28:56.975Z,1011.45
2019-03-31T05:29:56.951Z,1011.53
2019-03-31T05:30:56.928Z,1011.5
2019-03-31T05:31:56.901Z,1011.52
2019-03-31T05:32:56.876Z,1011.51
2019-03-31T05:33:56.853Z,1011.51
2019-03-31T05:34:56.829Z,1011.54
2019-03-31T05:35:56.809Z,1011.55
2019-03-31T05:36:56.780Z,1011.59
2019-03-31T05:37:56.755Z,1011.61
2019-03-31T05:38:56.732Z,1011.62
2019-03-31T05:39:56.707Z,1011.58
2019-03-31T05:40:56.683Z,1011.59
2019-03-31T05:41:56.659Z,1011.64
2019-03-31T05:42:56.634Z,1011.64
2019-03-31T05:44:05.342Z,1011.66
2019-03-31T05:44:56.586Z,1011.7
2019-03-31T05:45:56.561Z,1011.68
2019-03-31T05:46:56.534Z,1011.73
2019-03-31T05:47:56.517Z,1011.71
2019-03-31T05:48:56.487Z,1011.76
2019-03-31T05:49:56.462Z,1011.78
2019-03-31T05:50:56.438Z,1011.76
2019-03-31T05:51:56.417Z,1011.79
2019-03-31T05:52:56.390Z,1011.82
2019-03-31T05:53:56.364Z,1011.8
2019-03-31T05:54:56.341Z,1011.85
2019-03-31T05:55:56.316Z,1011.82
2019-03-31T05:56:56.293Z,1011.8
2019-03-31T05:57:56.266Z,1011.76
2019-03-31T05:58:56.246Z,1011.81
2019-03-31T05:59:56.218Z,1011.79
2019-03-31T06:00:56.194Z,1011.78
2019-03-31T06:01:56.169Z,1011.77
2019-03-31T06:02:56.144Z,1011.8
2019-03-31T06:03:56.121Z,1011.84
2019-03-31T06:04:56.095Z,1011.83
2019-03-31T06:05:56.073Z,1011.83
2019-03-31T06:06:56.049Z,1011.88
2019-03-31T06:07:56.023Z,1011.89
2019-03-31T06:08:55.999Z,1011.92
2019-03-31T06:09:55.979Z,1011.96
2019-03-31T06:10:55.953Z,1011.96
2019-03-31T06:11:55.930Z,1011.95
2019-03-31T06:12:55.901Z,1011.98
2019-03-31T06:13:55.880Z,1011.96
2019-03-31T06:14:55.853Z,1012.05
2019-03-31T06:15:55.829Z,1012
2019-03-31T06:16:55.808Z,1012.08
2019-03-31T06:17:55.780Z,1012.03
2019-03-31T06:18:55.757Z,1012.07
2019-03-31T06:19:55.732Z,1012.09
2019-03-31T06:20:55.711Z,1012.1
2019-03-31T06:21:55.685Z,1012.1
2019-03-31T06:22:55.659Z,1012.12
2019-03-31T06:23:55.633Z,1012.09
2019-03-31T06:24:55.611Z,1012.11
2019-03-31T06:25:55.587Z,1012.14
2019-03-31T06:26:55.563Z,1012.15
2019-03-31T06:27:55.539Z,1012.13
2019-03-31T06:28:55.513Z,1012.09
2019-03-31T06:29:55.488Z,1012.12
2019-03-31T06:30:55.464Z,1012.13
2019-03-31T06:31:55.439Z,1012.15
2019-03-31T06:32:55.688Z,1012.13
2019-03-31T06:33:55.393Z,1012.19
2019-03-31T06:34:55.367Z,1012.22
2019-03-31T06:35:55.342Z,1012.22
2019-03-31T06:36:55.318Z,1012.28
2019-03-31T06:37:55.294Z,1012.3
2019-03-31T06:38:55.268Z,1012.32
2019-03-31T06:39:55.244Z,1012.36
2019-03-31T06:40:55.227Z,1012.37
2019-03-31T06:41:55.195Z,1012.4
2019-03-31T06:42:55.172Z,1012.45
2019-03-31T06:43:55.149Z,1012.44
2019-03-31T06:44:55.124Z,1012.45
2019-03-31T06:45:55.098Z,1012.49
2019-03-31T06:46:55.074Z,1012.49
2019-03-31T06:47:55.056Z,1012.49
2019-03-31T06:48:55.024Z,1012.47
2019-03-31T06:49:54.999Z,1012.44
2019-03-31T06:50:54.978Z,1012.47
2019-03-31T06:51:54.952Z,1012.53
2019-03-31T06:52:54.926Z,1012.56
2019-03-31T06:53:54.902Z,1012.52
2019-03-31T06:54:54.877Z,1012.6
2019-03-31T06:55:54.854Z,1012.53
2019-03-31T06:56:54.829Z,1012.54
2019-03-31T06:57:54.805Z,1012.54
2019-03-31T06:58:54.780Z,1012.57
2019-03-31T06:59:54.756Z,1012.58
2019-03-31T07:00:54.730Z,1012.63
2019-03-31T07:01:54.707Z,1012.65
2019-03-31T07:02:54.682Z,1012.64
2019-03-31T07:03:54.657Z,1012.64
2019-03-31T07:05:00.681Z,1012.69
2019-03-31T07:05:54.607Z,1012.64
2019-03-31T07:06:54.583Z,1012.66
2019-03-31T07:07:54.596Z,1012.74
2019-03-31T07:08:54.537Z,1012.69
2019-03-31T07:09:54.509Z,1012.79
2019-03-31T07:10:54.483Z,1012.7
2019-03-31T07:11:54.481Z,1012.77
2019-03-31T07:12:54.435Z,1012.78
2019-03-31T07:13:54.411Z,1012.81
2019-03-31T07:14:54.385Z,1012.79
2019-03-31T07:15:54.362Z,1012.85
2019-03-31T07:16:54.336Z,1012.89
2019-03-31T07:17:54.312Z,1012.88
2019-03-31T07:18:54.288Z,1012.86
2019-03-31T07:19:54.263Z,1012.9
2019-03-31T07:20:54.239Z,1012.95
2019-03-31T07:21:54.214Z,1012.94
2019-03-31T07:22:54.188Z,1013.02
2019-03-31T07:23:54.167Z,1013.03
2019-03-31T07:24:54.142Z,1012.96
2019-03-31T07:25:54.113Z,1012.98
2019-03-31T07:26:54.091Z,1012.95
2019-03-31T07:27:54.066Z,1012.93
2019-03-31T07:28:54.038Z,1012.97
2019-03-31T07:29:54.014Z,1012.95
2019-03-31T07:30:53.989Z,1012.94
2019-03-31T07:31:53.965Z,1012.97
2019-03-31T07:32:53.939Z,1012.94
2019-03-31T07:33:53.915Z,1012.97
2019-03-31T07:34:53.893Z,1012.94
2019-03-31T07:35:53.866Z,1012.96
2019-03-31T07:36:53.842Z,1012.99
2019-03-31T07:37:53.816Z,1012.98
2019-03-31T07:38:53.807Z,1012.98
2019-03-31T07:39:53.957Z,1013.04
2019-03-31T07:40:54.010Z,1013.03
2019-03-31T07:41:54.005Z,1013.11
2019-03-31T07:42:53.743Z,1013.08
2019-03-31T07:43:53.669Z,1013.09
2019-03-31T07:44:53.780Z,1013.09
2019-03-31T07:45:55.775Z,1013.08
2019-03-31T07:46:53.734Z,1013.14
2019-03-31T07:47:53.574Z,1013.04
2019-03-31T07:48:53.548Z,1013.04
2019-03-31T07:49:53.523Z,1013.09
2019-03-31T07:50:53.642Z,1013.06
2019-03-31T07:51:53.476Z,1013.08
2019-03-31T07:52:53.450Z,1013.11
2019-03-31T07:53:53.426Z,1013.13
2019-03-31T07:54:53.399Z,1013.13
2019-03-31T07:55:53.375Z,1013.18
2019-03-31T07:56:53.351Z,1013.19
2019-03-31T07:57:54.635Z,1013.18
2019-03-31T07:58:53.301Z,1013.17
2019-03-31T07:59:56.335Z,1013.19
2019-03-31T08:00:53.254Z,1013.15
2019-03-31T08:01:53.230Z,1013.19
2019-03-31T08:02:53.205Z,1013.27
2019-03-31T08:03:53.182Z,1013.2
2019-03-31T08:04:53.157Z,1013.25
2019-03-31T08:05:53.131Z,1013.23
2019-03-31T08:06:53.107Z,1013.23
2019-03-31T08:07:53.083Z,1013.25
2019-03-31T08:08:53.537Z,1013.27
2019-03-31T08:09:53.034Z,1013.2
2019-03-31T08:10:53.009Z,1013.25
2019-03-31T08:11:53.234Z,1013.27
2019-03-31T08:12:52.961Z,1013.27
2019-03-31T08:13:55.225Z,1013.22
2019-03-31T08:14:52.913Z,1013.23
2019-03-31T08:15:52.890Z,1013.27
2019-03-31T08:16:52.866Z,1013.28
2019-03-31T08:17:52.844Z,1013.22
2019-03-31T08:18:52.817Z,1013.2
2019-03-31T08:19:52.793Z,1013.22
2019-03-31T08:20:52.769Z,1013.2
2019-03-31T08:21:52.746Z,1013.26
2019-03-31T08:22:52.722Z,1013.27
2019-03-31T08:23:52.698Z,1013.25
2019-03-31T08:24:52.675Z,1013.24
2019-03-31T08:25:52.649Z,1013.19
2019-03-31T08:26:52.628Z,1013.24
2019-03-31T08:27:52.600Z,1013.22
2019-03-31T08:28:52.583Z,1013.29
2019-03-31T08:30:00.299Z,1013.24
2019-03-31T08:30:52.530Z,1013.24
2019-03-31T08:31:52.505Z,1013.28
2019-03-31T08:32:52.482Z,1013.25
2019-03-31T08:33:52.459Z,1013.22
2019-03-31T08:34:52.433Z,1013.23
2019-03-31T08:35:52.411Z,1013.23
2019-03-31T08:36:52.387Z,1013.19
2019-03-31T08:37:52.363Z,1013.25
2019-03-31T08:38:52.339Z,1013.29
2019-03-31T08:39:52.315Z,1013.29
2019-03-31T08:40:52.292Z,1013.28
2019-03-31T08:41:52.267Z,1013.39
2019-03-31T08:42:52.248Z,1013.38
2019-03-31T08:43:52.220Z,1013.41
2019-03-31T08:44:52.207Z,1013.41
2019-03-31T08:45:52.172Z,1013.43
2019-03-31T08:46:52.149Z,1013.45
2019-03-31T08:47:52.125Z,1013.46
2019-03-31T08:48:52.101Z,1013.45
2019-03-31T08:49:52.078Z,1013.48
2019-03-31T08:50:52.057Z,1013.5
2019-03-31T08:51:52.030Z,1013.49
2019-03-31T08:52:52.006Z,1013.56
2019-03-31T08:53:51.983Z,1013.56
2019-03-31T08:54:51.962Z,1013.56
2019-03-31T08:55:51.938Z,1013.6
2019-03-31T08:56:51.960Z,1013.55
2019-03-31T08:57:51.891Z,1013.54
2019-03-31T08:58:51.868Z,1013.56
2019-03-31T08:59:51.845Z,1013.52
2019-03-31T09:00:51.823Z,1013.55
2019-03-31T09:01:51.797Z,1013.52
2019-03-31T09:02:51.775Z,1013.53
2019-03-31T09:03:51.752Z,1013.53
2019-03-31T09:04:51.728Z,1013.52
2019-03-31T09:06:01.358Z,1013.54
2019-03-31T09:06:51.690Z,1013.55
2019-03-31T09:07:51.661Z,1013.57
2019-03-31T09:08:51.638Z,1013.59
2019-03-31T09:09:51.616Z,1013.57
2019-03-31T09:10:51.603Z,1013.58
2019-03-31T09:11:51.573Z,1013.61
2019-03-31T09:12:51.551Z,1013.58
2019-03-31T09:13:51.529Z,1013.62
2019-03-31T09:14:51.506Z,1013.65
2019-03-31T09:15:51.485Z,1013.65
2019-03-31T09:16:51.464Z,1013.65
2019-03-31T09:17:54.150Z,1013.73
2019-03-31T09:18:51.425Z,1013.65
2019-03-31T09:19:51.404Z,1013.58
2019-03-31T09:20:51.384Z,1013.63
2019-03-31T09:21:51.363Z,1013.64
2019-03-31T09:22:51.343Z,1013.55
2019-03-31T09:23:51.325Z,1013.53
2019-03-31T09:24:51.308Z,1013.58
2019-03-31T09:25:51.286Z,1013.6
2019-03-31T09:26:51.267Z,1013.6
2019-03-31T09:27:51.247Z,1013.7
2019-03-31T09:28:51.228Z,1013.66
2019-03-31T09:29:51.208Z,1013.67
2019-03-31T09:30:51.189Z,1013.68
2019-03-31T09:31:51.233Z,1013.67
2019-03-31T09:32:51.176Z,1013.66
2019-03-31T09:33:51.130Z,1013.68
2019-03-31T09:34:51.108Z,1013.67
2019-03-31T09:35:51.088Z,1013.67
2019-03-31T09:36:51.067Z,1013.71
2019-03-31T09:37:51.047Z,1013.72
2019-03-31T09:38:51.694Z,1013.76
2019-03-31T09:39:51.007Z,1013.8
2019-03-31T09:40:50.988Z,1013.79
2019-03-31T09:41:50.964Z,1013.83
2019-03-31T09:42:50.945Z,1013.79
2019-03-31T09:43:50.925Z,1013.84
2019-03-31T09:44:50.915Z,1013.83
2019-03-31T09:45:50.882Z,1013.78
2019-03-31T09:46:50.865Z,1013.85
2019-03-31T09:47:50.840Z,1013.76
2019-03-31T09:48:50.820Z,1013.85
2019-03-31T09:49:50.800Z,1013.79
2019-03-31T09:50:50.778Z,1013.77
2019-03-31T09:51:50.758Z,1013.77
2019-03-31T09:52:50.738Z,1013.81
2019-03-31T09:53:50.718Z,1013.85
2019-03-31T09:54:50.697Z,1013.82
2019-03-31T09:55:50.676Z,1013.83
2019-03-31T09:56:50.656Z,1013.81
2019-03-31T09:57:50.636Z,1013.82
2019-03-31T09:58:50.618Z,1013.79
2019-03-31T09:59:50.595Z,1013.88
2019-03-31T10:00:50.578Z,1013.8
2019-03-31T10:01:50.554Z,1013.82
2019-03-31T10:02:50.533Z,1013.82
2019-03-31T10:03:50.512Z,1013.89
2019-03-31T10:04:50.491Z,1013.85
2019-03-31T10:05:50.473Z,1013.9
2019-03-31T10:06:50.450Z,1013.88
2019-03-31T10:07:50.429Z,1013.92
2019-03-31T10:08:50.409Z,1013.93
2019-03-31T10:09:50.389Z,1013.9
2019-03-31T10:10:50.368Z,1013.9
2019-03-31T10:11:50.347Z,1013.92
2019-03-31T10:12:50.325Z,1013.83
2019-03-31T10:13:50.404Z,1013.87
2019-03-31T10:14:50.286Z,1013.83
2019-03-31T10:15:50.278Z,1013.86
2019-03-31T10:16:50.485Z,1013.74
2019-03-31T10:17:50.221Z,1013.79
2019-03-31T10:18:50.202Z,1013.86
2019-03-31T10:19:50.182Z,1013.8
2019-03-31T10:20:50.160Z,1013.78
2019-03-31T10:21:50.140Z,1013.83
2019-03-31T10:22:50.122Z,1013.84
2019-03-31T10:23:50.099Z,1013.79
2019-03-31T10:24:50.180Z,1013.81
2019-03-31T10:25:50.313Z,1013.85
2019-03-31T10:26:50.037Z,1013.84
2019-03-31T10:27:50.017Z,1013.89
2019-03-31T10:28:49.997Z,1013.85
2019-03-31T10:29:49.978Z,1013.89
2019-03-31T10:30:49.959Z,1013.83
2019-03-31T10:31:49.937Z,1013.92
2019-03-31T10:32:49.918Z,1013.92
2019-03-31T10:33:49.900Z,1013.91
2019-03-31T10:34:49.881Z,1013.91
2019-03-31T10:35:49.860Z,1013.92
2019-03-31T10:36:49.841Z,1013.92
2019-03-31T10:37:49.822Z,1013.9
2019-03-31T10:38:49.804Z,1013.92
2019-03-31T10:39:49.785Z,1013.93
2019-03-31T10:40:49.763Z,1013.9
2019-03-31T10:41:49.744Z,1013.88
2019-03-31T10:42:49.724Z,1013.93
2019-03-31T10:43:49.704Z,1013.97
2019-03-31T10:44:49.683Z,1013.94
2019-03-31T10:45:49.665Z,1013.83
2019-03-31T10:46:49.644Z,1013.97
2019-03-31T10:47:49.623Z,1013.97
2019-03-31T10:48:49.603Z,1013.94
2019-03-31T10:49:49.582Z,1013.93
2019-03-31T10:50:49.568Z,1013.97
2019-03-31T10:51:49.558Z,1014.01
2019-03-31T10:52:49.542Z,1013.93
2019-03-31T10:53:49.506Z,1013.89
2019-03-31T10:54:49.482Z,1013.89
2019-03-31T10:55:49.461Z,1013.99
2019-03-31T10:56:49.440Z,1013.97
2019-03-31T10:57:49.420Z,1013.92
2019-03-31T10:58:49.403Z,1013.93
2019-03-31T10:59:49.378Z,1013.98
2019-03-31T11:00:49.359Z,1013.95
2019-03-31T11:01:49.344Z,1013.96
2019-03-31T11:02:49.316Z,1013.98
2019-03-31T11:03:49.298Z,1014
2019-03-31T11:04:49.273Z,1014.02
2019-03-31T11:05:49.252Z,1014.02
2019-03-31T11:06:58.612Z,1013.98
2019-03-31T11:07:49.211Z,1014.02
2019-03-31T11:08:49.190Z,1014.01
2019-03-31T11:09:49.171Z,1014.03
2019-03-31T11:10:49.153Z,1014.08
2019-03-31T11:11:49.127Z,1014.04
2019-03-31T11:12:50.792Z,1014.07
2019-03-31T11:13:49.086Z,1013.99
2019-03-31T11:14:49.067Z,1013.94
2019-03-31T11:15:49.045Z,1014.03
2019-03-31T11:16:49.024Z,1013.92
2019-03-31T11:17:49.006Z,1013.97
2019-03-31T11:18:48.984Z,1013.95
2019-03-31T11:19:48.966Z,1013.91
2019-03-31T11:20:48.949Z,1013.95
2019-03-31T11:21:48.932Z,1013.97
2019-03-31T11:22:48.908Z,1013.97
2019-03-31T11:23:48.889Z,1013.93
2019-03-31T11:24:48.869Z,1013.99
2019-03-31T11:25:48.850Z,1013.9
2019-03-31T11:26:48.832Z,1013.9
2019-03-31T11:27:48.813Z,1013.93
2019-03-31T11:28:48.794Z,1013.93
2019-03-31T11:29:48.775Z,1013.9
2019-03-31T11:30:48.754Z,1013.99
2019-03-31T11:31:48.737Z,1013.94
2019-03-31T11:32:48.719Z,1013.95
2019-03-31T11:33:48.696Z,1013.95
2019-03-31T11:34:48.678Z,1014.05
2019-03-31T11:35:48.661Z,1014.03
2019-03-31T11:36:48.641Z,1014.04
2019-03-31T11:37:48.621Z,1013.96
2019-03-31T11:38:48.610Z,1013.94
2019-03-31T11:39:48.582Z,1014.01
2019-03-31T11:40:48.566Z,1013.93
2019-03-31T11:41:48.544Z,1013.89
2019-03-31T11:42:48.525Z,1013.84
2019-03-31T11:43:48.505Z,1013.91
2019-03-31T11:44:48.485Z,1013.91
2019-03-31T11:45:48.469Z,1013.98
2019-03-31T11:46:48.449Z,1013.91
2019-03-31T11:47:48.429Z,1013.96
2019-03-31T11:48:48.410Z,1013.92
2019-03-31T11:49:48.393Z,1013.89
2019-03-31T11:50:48.377Z,1013.85
2019-03-31T11:51:48.394Z,1013.81
2019-03-31T11:52:48.338Z,1013.84
2019-03-31T11:53:48.318Z,1013.84
2019-03-31T11:54:48.319Z,1013.83
2019-03-31T11:55:48.390Z,1013.8
2019-03-31T11:56:48.264Z,1013.83
2019-03-31T11:57:48.246Z,1013.83
2019-03-31T11:58:48.227Z,1013.81
2019-03-31T11:59:49.755Z,1013.81
2019-03-31T12:00:48.192Z,1013.83
2019-03-31T12:01:48.173Z,1013.86
2019-03-31T12:02:48.154Z,1013.81
2019-03-31T12:03:48.139Z,1013.82
2019-03-31T12:04:48.118Z,1013.79
2019-03-31T12:05:48.100Z,1013.82
2019-03-31T12:06:48.084Z,1013.88